»·PEaware :: TPX576 KLAS-KONT

TPX576 :: KLAS-KONT

FLIGHT INFORMATION

Flight Status: Arrived
Operator: ATP Experience
More flights by this operator :: More flights under this callsign
Pilot: Dave P. (45)
Aircraft: BOEING 737-800
(B738)
More flights by this aircraft type
Origin: KLAS McCarran Intl
United States
Destination: KONT Ontario Intl
United States
More flights between these airports :: More routes between these airports
Route: +BOACH8 WHIGG FEYLA EAGLZ2
File this flight plan on PilotEdge
Remarks: PBN / A1B1C1D1S1S2 DOF / 180625 REG / N738PM OPR / TPX PER / D RMK / TCAS SIMBRIEF
Altitude:
(Current/Filed)
28,000ft
Speed:
(Current/Filed)
470kts
Departed: 24-Jun-18 06:38 PM
Arrived: 24-Jun-18 07:14 PM
Distance/Time
Traveled:
171nm/0:36
Distance/Time
To Go:
Arrived

Flight Plot

Page will automatically refresh every two minutes.

Flight plan parsing failed; only flown route is shown


Map Options




Map Legend


Flown Route
Filed Route
Departure Airport
Arrival Airport
Navaid (VOR, NDB)
Fix

Horizontal Profiles

Position Reports

Time Latitude Longitude Heading Altitude Ground
Speed
24-Jun-18 18:22 36.080279 -115.139086 316 2189ft 0kts
24-Jun-18 18:23 36.080279 -115.139086 316 2189ft 0kts
24-Jun-18 18:24 36.080279 -115.139086 316 2189ft 0kts
24-Jun-18 18:25 36.080279 -115.139086 316 2189ft 0kts
24-Jun-18 18:26 36.080279 -115.139086 316 2189ft 0kts
24-Jun-18 18:27 36.080279 -115.139086 316 2189ft 0kts
24-Jun-18 18:28 36.080279 -115.139086 316 2189ft 0kts
24-Jun-18 18:29 36.080136 -115.138920 316 2189ft 2kts
24-Jun-18 18:30 36.079763 -115.138487 316 2189ft 0kts
24-Jun-18 18:31 36.079763 -115.138487 316 2189ft 0kts
24-Jun-18 18:32 36.079494 -115.138877 209 2189ft 9kts
24-Jun-18 18:33 36.078235 -115.138388 88 2189ft 16kts
24-Jun-18 18:34 36.078240 -115.131636 90 2189ft 20kts
24-Jun-18 18:35 36.078246 -115.126233 90 2189ft 18kts
24-Jun-18 18:36 36.077741 -115.122165 117 2189ft 8kts
24-Jun-18 18:37 36.076350 -115.122131 269 2189ft 6kts
24-Jun-18 18:38 36.076393 -115.155852 270 2400ft 174kts
24-Jun-18 18:39 36.076710 -115.218679 267 4416ft 208kts
24-Jun-18 18:40 36.035487 -115.274015 194 5770ft 273kts
24-Jun-18 18:41 35.960572 -115.302961 190 7167ft 290kts
24-Jun-18 18:42 35.878958 -115.312665 185 10096ft 300kts
24-Jun-18 18:43 35.788092 -115.307655 174 11609ft 363kts
24-Jun-18 18:44 35.684915 -115.306166 201 14121ft 381kts
24-Jun-18 18:45 35.604776 -115.392604 229 16777ft 392kts
24-Jun-18 18:46 35.530426 -115.493413 228 19196ft 405kts
24-Jun-18 18:47 35.453041 -115.597543 228 21370ft 418kts
24-Jun-18 18:48 35.373939 -115.704382 228 23288ft 429kts
24-Jun-18 18:49 35.292438 -115.813592 228 24995ft 440kts
24-Jun-18 18:50 35.208733 -115.925456 228 26528ft 450kts
24-Jun-18 18:51 35.123861 -116.038176 228 27849ft 449kts
24-Jun-18 18:52 35.041914 -116.146392 228 26081ft 427kts
24-Jun-18 18:53 34.959853 -116.247995 222 24155ft 411kts
24-Jun-18 18:54 34.876755 -116.340450 224 22180ft 399kts
24-Jun-18 18:55 34.799394 -116.433925 229 20913ft 387kts
24-Jun-18 18:56 34.735840 -116.538958 235 19325ft 381kts
24-Jun-18 18:57 34.674610 -116.642171 235 17707ft 372kts
24-Jun-18 18:58 34.614900 -116.742314 234 16334ft 360kts
24-Jun-18 18:59 34.564390 -116.846959 241 14789ft 357kts
24-Jun-18 19:00 34.508016 -116.943944 228 13288ft 352kts
24-Jun-18 19:01 34.445002 -117.031469 229 12008ft 334kts
24-Jun-18 19:02 34.388166 -117.112208 229 11565ft 295kts
24-Jun-18 19:03 34.326531 -117.167224 184 10657ft 270kts
24-Jun-18 19:04 34.256067 -117.172062 182 9996ft 245kts
24-Jun-18 19:05 34.186982 -117.177190 182 9942ft 251kts
24-Jun-18 19:06 34.118074 -117.182723 182 8908ft 246kts
24-Jun-18 19:07 34.057989 -117.209210 245 7418ft 246kts
24-Jun-18 19:08 34.053557 -117.291583 268 5626ft 256kts
24-Jun-18 19:09 34.053855 -117.370780 268 4327ft 216kts
24-Jun-18 19:10 34.054164 -117.439254 268 3246ft 191kts
24-Jun-18 19:11 34.054437 -117.499415 268 2290ft 169kts
24-Jun-18 19:12 34.054671 -117.550644 268 1479ft 143kts
24-Jun-18 19:13 34.054889 -117.596038 270 952ft 85kts
24-Jun-18 19:14 34.057361 -117.599861 1 952ft 13kts
24-Jun-18 19:15 34.059683 -117.599521 0 952ft 1kts
24-Jun-18 19:16 34.059784 -117.599521 0 952ft 0kts
24-Jun-18 19:17 34.059784 -117.599521 0 952ft 0kts
24-Jun-18 19:18 34.059784 -117.599521 0 952ft 0kts
24-Jun-18 19:19 34.059784 -117.599521 0 952ft 0kts
24-Jun-18 19:20 34.059784 -117.599521 0 952ft 0kts

Navigation Log

Ident Type
Flight plan parsing failed, navigation log unavailable